Time;durP1;ratioP1;P1;durP2;ratioP2;P2;SDS_P1;SDS_P2;PMS_P1;PMS_P2;Temp;Humidity;BMP_temperature;BMP_pressure;BME280_temperature;BME280_humidity;BME280_pressure;Samples;Min_cycle;Max_cycle;Signal;HPM_P1;HPM_P2
2023/12/01 00:01:53;;;;;;;7.90;4.85;;;;;;;;;;6180322;28;20058;-85
2023/12/01 00:04:55;;;;;;;7.63;4.07;;;;;;;;;;6179450;28;20509;-86
2023/12/01 00:07:56;;;;;;;7.00;3.92;;;;;;;;;;6168367;28;20194;-87
2023/12/01 00:10:58;;;;;;;6.65;3.40;;;;;;;;;;6178702;28;20066;-87
2023/12/01 00:14:00;;;;;;;7.15;3.78;;;;;;;;;;6181965;28;20074;-87
2023/12/01 00:17:02;;;;;;;7.57;4.22;;;;;;;;;;6165749;28;20050;-87
2023/12/01 00:20:04;;;;;;;8.07;4.63;;;;;;;;;;6200022;28;20124;-86
2023/12/01 00:23:05;;;;;;;7.00;3.30;;;;;;;;;;6167902;28;20077;-87
2023/12/01 00:26:07;;;;;;;8.48;4.15;;;;;;;;;;6200875;28;20065;-87
2023/12/01 00:29:10;;;;;;;8.23;4.10;;;;;;;;;;6185508;28;20054;-86
2023/12/01 00:32:22;;;;;;;9.32;4.15;;;;;;;;;;6204398;28;20058;-88
2023/12/01 00:35:23;;;;;;;7.35;4.50;;;;;;;;;;6190561;28;20043;-88
2023/12/01 00:38:25;;;;;;;8.77;4.72;;;;;;;;;;6178599;28;20224;-86
2023/12/01 00:41:27;;;;;;;7.53;3.92;;;;;;;;;;6183974;28;20061;-86
2023/12/01 00:44:31;;;;;;;9.10;4.70;;;;;;;;;;6188339;28;20042;-86
2023/12/01 00:47:37;;;;;;;8.55;4.07;;;;;;;;;;6161647;28;20042;-86
2023/12/01 00:50:39;;;;;;;11.88;4.88;;;;;;;;;;6187846;28;20050;-88
2023/12/01 00:53:41;;;;;;;9.88;4.70;;;;;;;;;;6190276;28;20046;-85
2023/12/01 00:56:43;;;;;;;7.22;4.10;;;;;;;;;;6171234;28;20053;-87
2023/12/01 00:59:47;;;;;;;7.93;3.67;;;;;;;;;;6175424;28;20046;-86
2023/12/01 01:02:50;;;;;;;8.90;3.85;;;;;;;;;;6185072;28;20057;-87
2023/12/01 01:05:52;;;;;;;8.32;4.20;;;;;;;;;;6167256;28;20052;-87
2023/12/01 01:08:54;;;;;;;7.75;4.38;;;;;;;;;;6189120;28;20042;-84
2023/12/01 01:11:55;;;;;;;9.60;3.85;;;;;;;;;;6209042;28;20046;-87
2023/12/01 01:15:02;;;;;;;9.68;3.50;;;;;;;;;;6198910;28;20192;-85
2023/12/01 01:18:04;;;;;;;6.78;3.20;;;;;;;;;;6177757;28;20047;-88
2023/12/01 01:21:08;;;;;;;8.27;3.95;;;;;;;;;;6154639;28;20105;-87
2023/12/01 01:24:10;;;;;;;7.70;3.35;;;;;;;;;;6182463;28;20046;-85
2023/12/01 01:27:12;;;;;;;8.07;3.80;;;;;;;;;;6163664;28;20151;-86
2023/12/01 01:30:17;;;;;;;7.93;3.60;;;;;;;;;;6168330;28;20047;-86
2023/12/01 01:33:35;;;;;;;10.07;4.03;;;;;;;;;;6184406;28;20050;-86
2023/12/01 01:36:44;;;;;;;9.50;3.67;;;;;;;;;;6138633;28;20054;-85
2023/12/01 01:39:46;;;;;;;8.48;3.40;;;;;;;;;;6178046;28;20256;-86
2023/12/01 01:42:48;;;;;;;9.30;4.10;;;;;;;;;;6197836;28;20046;-86
2023/12/01 01:46:05;;;;;;;6.68;3.25;;;;;;;;;;6202378;28;20043;-86
2023/12/01 01:49:07;;;;;;;9.10;4.53;;;;;;;;;;6172252;28;20051;-84
2023/12/01 01:52:11;;;;;;;8.85;3.95;;;;;;;;;;6177223;28;20051;-87
2023/12/01 01:55:13;;;;;;;8.30;4.55;;;;;;;;;;6201808;28;20054;-85
2023/12/01 01:58:15;;;;;;;6.35;3.40;;;;;;;;;;6198251;28;20587;-86
2023/12/01 02:01:17;;;;;;;7.57;3.40;;;;;;;;;;6177368;28;20054;-86
2023/12/01 02:04:19;;;;;;;8.55;3.17;;;;;;;;;;6157177;28;20047;-86
2023/12/01 02:07:27;;;;;;;5.70;2.92;;;;;;;;;;6181994;28;20106;-83
2023/12/01 02:10:34;;;;;;;7.97;3.63;;;;;;;;;;6155719;28;20051;-86
2023/12/01 02:13:43;;;;;;;8.55;3.90;;;;;;;;;;6133320;28;20045;-86
2023/12/01 02:16:48;;;;;;;8.38;4.55;;;;;;;;;;6188387;28;20093;-86
2023/12/01 02:19:52;;;;;;;7.57;4.13;;;;;;;;;;6178137;28;20050;-85
2023/12/01 02:22:55;;;;;;;7.97;3.80;;;;;;;;;;6154596;28;20043;-85
2023/12/01 02:25:58;;;;;;;7.97;3.55;;;;;;;;;;6182692;28;20054;-86
2023/12/01 02:29:03;;;;;;;7.95;3.30;;;;;;;;;;6178382;28;20046;-87
2023/12/01 02:32:07;;;;;;;7.05;3.88;;;;;;;;;;6198483;28;20034;-86
2023/12/01 02:35:09;;;;;;;7.18;3.78;;;;;;;;;;6168201;28;20571;-86
2023/12/01 02:38:20;;;;;;;6.90;3.53;;;;;;;;;;6170092;28;20043;-88
2023/12/01 02:41:24;;;;;;;10.00;4.65;;;;;;;;;;6173728;28;20049;-86
2023/12/01 02:44:25;;;;;;;7.72;3.63;;;;;;;;;;6194289;28;20042;-88
2023/12/01 02:47:27;;;;;;;7.68;3.72;;;;;;;;;;6184681;28;20050;-87
2023/12/01 02:50:31;;;;;;;8.05;4.03;;;;;;;;;;6181638;28;20050;-86
2023/12/01 02:53:33;;;;;;;8.15;4.25;;;;;;;;;;6162371;28;20038;-86
2023/12/01 02:56:35;;;;;;;7.50;3.92;;;;;;;;;;6180207;28;20279;-85
2023/12/01 02:59:37;;;;;;;6.22;3.03;;;;;;;;;;6179923;28;20046;-86
2023/12/01 03:02:42;;;;;;;4.70;2.50;;;;;;;;;;6192025;28;20053;-86
2023/12/01 03:05:45;;;;;;;5.88;2.85;;;;;;;;;;6190667;28;20077;-85
2023/12/01 03:08:47;;;;;;;6.25;2.85;;;;;;;;;;6181205;28;20057;-88
2023/12/01 03:11:52;;;;;;;7.55;3.80;;;;;;;;;;6195877;28;20121;-86
2023/12/01 03:14:54;;;;;;;6.82;3.13;;;;;;;;;;6171983;28;20061;-85
2023/12/01 03:18:09;;;;;;;6.00;3.00;;;;;;;;;;6193563;28;20042;-86
2023/12/01 03:21:12;;;;;;;9.18;3.00;;;;;;;;;;6171863;28;20047;-86
2023/12/01 03:24:17;;;;;;;9.20;4.20;;;;;;;;;;6185163;28;20073;-84
2023/12/01 03:27:19;;;;;;;12.57;4.47;;;;;;;;;;6180701;28;20054;-86
2023/12/01 03:30:21;;;;;;;11.57;4.53;;;;;;;;;;6178634;28;20037;-85
2023/12/01 03:33:23;;;;;;;9.50;4.53;;;;;;;;;;6197219;28;20049;-85
2023/12/01 03:36:25;;;;;;;10.43;4.38;;;;;;;;;;6173527;28;20504;-84
2023/12/01 03:39:32;;;;;;;12.75;5.15;;;;;;;;;;6149268;28;20543;-85
2023/12/01 03:42:40;;;;;;;11.02;4.53;;;;;;;;;;6196598;28;20531;-86
2023/12/01 03:45:42;;;;;;;12.18;4.85;;;;;;;;;;6193673;28;20046;-87
2023/12/01 03:48:47;;;;;;;13.07;5.18;;;;;;;;;;6156934;28;20046;-87
2023/12/01 03:51:53;;;;;;;12.20;4.85;;;;;;;;;;6188277;28;20504;-86
2023/12/01 03:54:59;;;;;;;11.98;5.13;;;;;;;;;;6155609;28;20531;-86
2023/12/01 03:58:02;;;;;;;14.00;6.18;;;;;;;;;;6185768;28;20034;-87
2023/12/01 04:01:05;;;;;;;17.80;6.68;;;;;;;;;;6161754;28;20043;-85
2023/12/01 04:04:10;;;;;;;11.45;4.57;;;;;;;;;;6163516;28;20054;-86
2023/12/01 04:07:12;;;;;;;13.45;5.43;;;;;;;;;;6165599;28;20058;-85
2023/12/01 04:10:14;;;;;;;13.63;5.22;;;;;;;;;;6187685;28;20057;-85
2023/12/01 04:13:16;;;;;;;15.50;5.55;;;;;;;;;;6193866;28;20109;-88
2023/12/01 04:16:18;;;;;;;19.08;5.82;;;;;;;;;;6163581;28;20061;-86
2023/12/01 04:19:23;;;;;;;10.70;4.75;;;;;;;;;;6120808;28;20134;-86
2023/12/01 04:22:37;;;;;;;14.68;5.72;;;;;;;;;;6158039;28;20073;-87
2023/12/01 04:25:46;;;;;;;14.30;5.78;;;;;;;;;;6160484;28;20078;-88
2023/12/01 04:28:58;;;;;;;14.35;5.68;;;;;;;;;;6182580;28;20046;-86
2023/12/01 04:32:13;;;;;;;15.90;5.70;;;;;;;;;;6123161;28;20038;-86
2023/12/01 04:35:28;;;;;;;13.80;5.50;;;;;;;;;;6180909;28;20137;-83
2023/12/01 04:38:30;;;;;;;14.25;5.50;;;;;;;;;;6187406;28;20061;-88
2023/12/01 04:41:38;;;;;;;14.07;5.53;;;;;;;;;;6175399;28;20039;-87
2023/12/01 04:44:40;;;;;;;18.85;7.60;;;;;;;;;;6175333;28;20050;-86
2023/12/01 04:47:50;;;;;;;15.35;7.70;;;;;;;;;;6181995;28;20062;-85
2023/12/01 04:50:52;;;;;;;18.98;8.15;;;;;;;;;;6155566;28;20046;-86
2023/12/01 04:53:55;;;;;;;14.57;7.03;;;;;;;;;;6187080;28;20069;-86
2023/12/01 04:57:00;;;;;;;16.98;7.35;;;;;;;;;;6167439;28;20073;-86
2023/12/01 05:00:18;;;;;;;21.20;7.07;;;;;;;;;;6181309;28;20057;-85
2023/12/01 05:03:20;;;;;;;16.33;6.88;;;;;;;;;;6165388;28;20457;-85
2023/12/01 05:06:22;;;;;;;16.38;6.13;;;;;;;;;;6177486;28;20520;-86
2023/12/01 05:09:33;;;;;;;14.15;6.30;;;;;;;;;;6179529;28;20046;-87
2023/12/01 05:12:37;;;;;;;17.02;6.35;;;;;;;;;;6164161;28;20122;-87
2023/12/01 05:15:46;;;;;;;14.40;6.77;;;;;;;;;;6136315;28;20043;-88
2023/12/01 05:18:54;;;;;;;17.05;6.75;;;;;;;;;;6183139;28;20599;-87
2023/12/01 05:22:03;;;;;;;14.45;6.32;;;;;;;;;;6173507;28;20050;-87
2023/12/01 05:25:06;;;;;;;17.33;6.05;;;;;;;;;;6190818;28;20101;-86
2023/12/01 05:28:13;;;;;;;13.02;5.80;;;;;;;;;;6171628;28;20090;-87
2023/12/01 05:31:24;;;;;;;18.52;7.07;;;;;;;;;;6152552;28;20065;-86
2023/12/01 05:34:35;;;;;;;16.83;6.18;;;;;;;;;;6176115;28;20042;-85
2023/12/01 05:37:39;;;;;;;14.25;5.85;;;;;;;;;;6175826;28;20425;-86
2023/12/01 05:40:42;;;;;;;14.75;6.72;;;;;;;;;;6173562;28;20420;-85
2023/12/01 05:43:44;;;;;;;15.38;5.43;;;;;;;;;;6140351;28;20074;-84
2023/12/01 05:46:48;;;;;;;15.10;6.30;;;;;;;;;;6159123;28;20042;-85
2023/12/01 05:49:53;;;;;;;262.97;89.03;;;;;;;;;;6159497;28;20098;-86
2023/12/01 05:53:00;;;;;;;164.15;52.90;;;;;;;;;;6151194;28;20058;-86
2023/12/01 05:56:06;;;;;;;177.55;44.63;;;;;;;;;;6164359;28;20046;-89
2023/12/01 05:59:14;;;;;;;85.50;25.63;;;;;;;;;;6157229;28;20046;-86
2023/12/01 06:02:16;;;;;;;210.77;60.50;;;;;;;;;;6156786;28;20046;-86
2023/12/01 06:05:21;;;;;;;38.55;15.90;;;;;;;;;;6164929;28;20049;-86
2023/12/01 06:08:26;;;;;;;57.38;24.60;;;;;;;;;;6168602;28;20078;-86
2023/12/01 06:11:27;;;;;;;53.58;25.27;;;;;;;;;;6202600;28;20048;-85
2023/12/01 06:14:30;;;;;;;44.72;22.95;;;;;;;;;;6160867;28;20058;-86
2023/12/01 06:17:44;;;;;;;32.47;16.30;;;;;;;;;;6167818;28;20051;-87
2023/12/01 06:21:00;;;;;;;35.42;16.80;;;;;;;;;;6131151;28;20050;-83
2023/12/01 06:24:09;;;;;;;22.38;10.63;;;;;;;;;;6178853;28;20039;-86
2023/12/01 06:27:28;;;;;;;22.48;11.07;;;;;;;;;;6169501;28;20062;-86
2023/12/01 06:30:37;;;;;;;32.25;15.27;;;;;;;;;;6175465;28;20501;-86
2023/12/01 06:33:42;;;;;;;18.40;9.30;;;;;;;;;;6153739;28;20853;-85
2023/12/01 06:36:49;;;;;;;17.23;6.95;;;;;;;;;;6147394;28;20050;-85
2023/12/01 06:40:01;;;;;;;15.95;8.05;;;;;;;;;;6147430;28;20062;-87
2023/12/01 06:43:09;;;;;;;15.98;8.20;;;;;;;;;;6172790;28;20046;-87
2023/12/01 06:46:13;;;;;;;18.95;11.75;;;;;;;;;;6133425;28;20189;-87
2023/12/01 06:49:28;;;;;;;9.82;5.03;;;;;;;;;;6122127;28;20047;-87
2023/12/01 06:53:06;;;;;;;13.82;7.40;;;;;;;;;;6131986;28;20053;-88
2023/12/01 06:56:26;;;;;;;22.73;9.68;;;;;;;;;;6158697;28;20053;-88
2023/12/01 06:59:41;;;;;;;47.22;18.48;;;;;;;;;;6139643;28;22069;-89
2023/12/01 07:03:03;;;;;;;15.20;6.88;;;;;;;;;;6098428;28;20414;-88
2023/12/01 07:06:09;;;;;;;81.55;27.95;;;;;;;;;;6140676;28;20056;-87
2023/12/01 07:09:17;;;;;;;50.08;17.70;;;;;;;;;;6116085;28;20155;-86
2023/12/01 07:12:23;;;;;;;12.48;6.15;;;;;;;;;;6128977;28;20504;-86
2023/12/01 07:15:40;;;;;;;15.07;6.82;;;;;;;;;;6151679;28;20053;-87
2023/12/01 07:18:55;;;;;;;61.83;20.70;;;;;;;;;;6131872;28;20051;-87
2023/12/01 07:22:18;;;;;;;21.08;9.90;;;;;;;;;;6152727;28;20050;-87
2023/12/01 07:25:26;;;;;;;15.63;7.18;;;;;;;;;;6120821;28;20069;-86
2023/12/01 07:28:49;;;;;;;19.40;8.55;;;;;;;;;;6154236;28;20232;-87
2023/12/01 07:31:59;;;;;;;17.30;6.10;;;;;;;;;;6157388;28;21325;-87
2023/12/01 07:35:09;;;;;;;13.38;5.70;;;;;;;;;;6156146;28;20567;-86
2023/12/01 07:38:23;;;;;;;28.15;19.55;;;;;;;;;;6129115;28;20114;-87
2023/12/01 07:41:27;;;;;;;13.23;6.72;;;;;;;;;;6187289;28;20051;-86
2023/12/01 07:44:39;;;;;;;17.27;10.18;;;;;;;;;;6155345;28;20053;-87
2023/12/01 07:47:48;;;;;;;17.48;11.48;;;;;;;;;;6110382;28;20035;-88
2023/12/01 07:51:16;;;;;;;11.00;4.57;;;;;;;;;;6142868;28;20027;-89
2023/12/01 07:54:40;;;;;;;13.85;5.65;;;;;;;;;;6149979;28;20042;-87
2023/12/01 07:57:59;;;;;;;18.67;6.82;;;;;;;;;;6150885;28;20077;-87
2023/12/01 08:01:14;;;;;;;91.28;25.58;;;;;;;;;;6210762;23;20127;-78
2023/12/01 08:04:16;;;;;;;17.90;7.63;;;;;;;;;;6213613;28;20049;-77
2023/12/01 08:07:18;;;;;;;10.70;4.75;;;;;;;;;;6211720;28;20088;-78
2023/12/01 08:10:20;;;;;;;10.88;4.22;;;;;;;;;;6201652;28;20045;-77
2023/12/01 08:13:24;;;;;;;11.70;4.28;;;;;;;;;;6201588;28;20078;-78
2023/12/01 08:16:26;;;;;;;;;;;;;;;;;;6208018;28;20526;-79
2023/12/01 08:19:28;;;;;;;7.32;3.38;;;;;;;;;;6208661;28;20129;-77
2023/12/01 08:22:30;;;;;;;4.13;2.53;;;;;;;;;;6207252;28;20046;-78
2023/12/01 08:25:32;;;;;;;7.03;3.35;;;;;;;;;;6208489;28;20065;-77
2023/12/01 08:28:34;;;;;;;8.05;3.90;;;;;;;;;;6208558;28;20324;-78
2023/12/01 08:31:38;;;;;;;9.20;4.35;;;;;;;;;;6205507;28;20053;-77
2023/12/01 08:34:41;;;;;;;9.23;3.63;;;;;;;;;;6219165;28;20050;-78
2023/12/01 08:37:44;;;;;;;123.13;38.25;;;;;;;;;;6202435;28;20046;-79
2023/12/01 08:40:46;;;;;;;19.63;8.35;;;;;;;;;;6183007;28;20456;-78
2023/12/01 08:43:55;;;;;;;19.98;8.38;;;;;;;;;;6206611;28;20481;-77
2023/12/01 08:46:57;;;;;;;11.15;4.50;;;;;;;;;;6189196;28;20046;-78
2023/12/01 08:49:59;;;;;;;33.97;10.55;;;;;;;;;;6199567;28;20202;-77
2023/12/01 08:53:10;;;;;;;39.53;13.55;;;;;;;;;;6206211;28;20050;-78
2023/12/01 08:56:11;;;;;;;25.40;8.75;;;;;;;;;;6205516;28;20038;-78
2023/12/01 08:59:13;;;;;;;8.35;4.35;;;;;;;;;;6211961;28;20042;-78
2023/12/01 09:02:15;;;;;;;27.83;8.82;;;;;;;;;;6183706;28;20045;-78
2023/12/01 09:05:17;;;;;;;28.42;11.40;;;;;;;;;;6209051;28;20135;-78
2023/12/01 09:08:19;;;;;;;17.55;8.68;;;;;;;;;;6205910;28;20508;-77
2023/12/01 09:11:21;;;;;;;17.13;8.90;;;;;;;;;;6211153;28;20073;-78
2023/12/01 09:14:23;;;;;;;16.55;7.05;;;;;;;;;;6209867;28;20141;-77
2023/12/01 09:17:25;;;;;;;55.80;16.43;;;;;;;;;;6205612;28;20054;-77
2023/12/01 09:20:27;;;;;;;11.88;5.75;;;;;;;;;;6208450;28;20563;-78
2023/12/01 09:23:28;;;;;;;19.38;7.57;;;;;;;;;;6211657;28;20522;-78
2023/12/01 09:26:31;;;;;;;12.05;6.32;;;;;;;;;;6210063;28;20041;-78
2023/12/01 09:29:33;;;;;;;23.07;7.30;;;;;;;;;;6208381;28;20046;-79
2023/12/01 09:32:34;;;;;;;11.90;5.82;;;;;;;;;;6187359;28;20042;-78
2023/12/01 09:35:36;;;;;;;18.13;7.25;;;;;;;;;;6209456;28;20050;-78
2023/12/01 09:38:59;;;;;;;7.18;3.83;;;;;;;;;;6207408;28;20054;-78
2023/12/01 09:42:08;;;;;;;9.77;4.60;;;;;;;;;;6209697;28;20526;-78
2023/12/01 09:45:21;;;;;;;6.28;3.40;;;;;;;;;;6207390;28;20176;-77
2023/12/01 09:48:23;;;;;;;7.83;3.93;;;;;;;;;;6209463;28;20049;-79
2023/12/01 09:51:25;;;;;;;6.93;3.65;;;;;;;;;;6191143;28;20120;-78
2023/12/01 09:54:26;;;;;;;9.40;4.45;;;;;;;;;;6213605;28;20037;-79
2023/12/01 09:57:29;;;;;;;9.95;4.53;;;;;;;;;;6212863;28;20146;-78
2023/12/01 10:00:31;;;;;;;6.80;3.67;;;;;;;;;;6212762;28;20042;-79
2023/12/01 10:03:33;;;;;;;20.92;7.53;;;;;;;;;;6212148;28;20045;-78
2023/12/01 10:06:37;;;;;;;7.32;3.70;;;;;;;;;;6215402;28;20049;-79
2023/12/01 10:09:42;;;;;;;8.35;4.57;;;;;;;;;;6219845;28;20048;-81
2023/12/01 10:12:58;;;;;;;5.70;3.10;;;;;;;;;;6207087;28;20486;-79
2023/12/01 10:16:00;;;;;;;6.97;3.97;;;;;;;;;;6207706;28;20057;-79
2023/12/01 10:19:05;;;;;;;8.32;5.40;;;;;;;;;;6210586;28;20042;-79
2023/12/01 10:22:11;;;;;;;8.95;4.30;;;;;;;;;;6226654;28;20050;-79
2023/12/01 10:25:13;;;;;;;9.05;4.05;;;;;;;;;;6214903;28;20101;-81
2023/12/01 10:28:18;;;;;;;9.50;4.97;;;;;;;;;;6213803;28;20046;-79
2023/12/01 10:31:20;;;;;;;7.70;4.13;;;;;;;;;;6206535;28;20060;-80
2023/12/01 10:34:23;;;;;;;7.57;4.68;;;;;;;;;;6214925;28;20319;-80
2023/12/01 10:37:25;;;;;;;;;;;;;;;;;;6218388;28;20386;-81
2023/12/01 10:40:27;;;;;;;8.52;4.07;;;;;;;;;;6223277;28;19948;-79
2023/12/01 10:43:30;;;;;;;7.97;4.90;;;;;;;;;;6228334;28;20045;-78
2023/12/01 10:46:34;;;;;;;5.90;3.58;;;;;;;;;;6216903;28;20042;-79
2023/12/01 10:49:39;;;;;;;7.22;4.00;;;;;;;;;;6216699;28;20697;-79
2023/12/01 10:52:44;;;;;;;5.25;3.08;;;;;;;;;;6193211;28;20042;-81
2023/12/01 10:55:47;;;;;;;4.80;3.08;;;;;;;;;;6213266;28;20073;-79
2023/12/01 10:58:52;;;;;;;5.50;3.20;;;;;;;;;;6214824;28;20060;-81
2023/12/01 11:01:59;;;;;;;10.25;7.28;;;;;;;;;;6201754;28;20119;-81
2023/12/01 11:05:03;;;;;;;6.03;4.28;;;;;;;;;;6197382;28;20041;-80
2023/12/01 11:08:35;;;;;;;7.95;4.68;;;;;;;;;;6196418;28;20038;-80
2023/12/01 11:12:02;;;;;;;11.27;5.55;;;;;;;;;;6214647;28;20161;-79
2023/12/01 11:15:16;;;;;;;3.97;2.63;;;;;;;;;;6214884;28;20038;-78
2023/12/01 11:18:18;;;;;;;5.30;3.00;;;;;;;;;;6223989;28;20058;-78
2023/12/01 11:21:20;;;;;;;4.78;2.85;;;;;;;;;;6216122;28;20213;-77
2023/12/01 11:24:26;;;;;;;4.78;2.80;;;;;;;;;;6224378;28;20105;-80
2023/12/01 11:27:31;;;;;;;3.92;2.38;;;;;;;;;;6216455;28;20052;-79
2023/12/01 11:31:07;;;;;;;4.25;2.70;;;;;;;;;;6214195;28;20618;-79
2023/12/01 11:34:12;;;;;;;4.65;2.83;;;;;;;;;;6208450;28;20045;-81
2023/12/01 11:37:14;;;;;;;4.72;3.47;;;;;;;;;;6204886;28;20057;-79
2023/12/01 11:40:23;;;;;;;3.60;2.70;;;;;;;;;;6214127;28;20129;-80
2023/12/01 11:43:27;;;;;;;48.83;19.27;;;;;;;;;;6198235;28;20057;-79
2023/12/01 11:46:39;;;;;;;10.82;4.90;;;;;;;;;;6211092;28;20049;-80
2023/12/01 11:49:43;;;;;;;11.43;5.50;;;;;;;;;;6212763;28;20050;-78
2023/12/01 11:52:46;;;;;;;24.20;11.20;;;;;;;;;;6212480;28;20188;-76
2023/12/01 11:55:50;;;;;;;9.32;5.97;;;;;;;;;;6211796;28;20067;-77
2023/12/01 11:58:53;;;;;;;10.15;4.85;;;;;;;;;;6224361;28;20296;-79
2023/12/01 12:01:56;;;;;;;28.98;10.13;;;;;;;;;;6210096;28;20057;-80
2023/12/01 12:05:01;;;;;;;11.27;4.03;;;;;;;;;;6216440;28;20049;-79
2023/12/01 12:08:04;;;;;;;11.02;4.93;;;;;;;;;;6214192;28;20041;-78
2023/12/01 12:11:11;;;;;;;13.60;5.60;;;;;;;;;;6216333;28;20570;-79
2023/12/01 12:14:13;;;;;;;32.38;12.65;;;;;;;;;;6201230;28;20157;-80
2023/12/01 12:17:14;;;;;;;18.35;6.72;;;;;;;;;;6215685;28;20054;-79
2023/12/01 12:20:23;;;;;;;12.93;6.07;;;;;;;;;;6211726;28;20111;-78
2023/12/01 12:23:25;;;;;;;6.90;3.40;;;;;;;;;;6211498;28;20056;-79
2023/12/01 12:26:29;;;;;;;22.73;7.75;;;;;;;;;;6209656;28;20562;-79
2023/12/01 12:29:33;;;;;;;23.75;7.72;;;;;;;;;;6215627;28;20488;-78
2023/12/01 12:32:36;;;;;;;21.02;9.07;;;;;;;;;;6215427;28;20527;-78
2023/12/01 12:35:37;;;;;;;123.97;38.90;;;;;;;;;;6217500;28;20236;-79
2023/12/01 12:38:39;;;;;;;66.57;23.77;;;;;;;;;;6213134;28;20120;-79
2023/12/01 12:41:42;;;;;;;28.08;11.27;;;;;;;;;;6214598;28;20042;-79
2023/12/01 12:44:46;;;;;;;16.35;7.55;;;;;;;;;;6215616;28;20137;-79
2023/12/01 12:47:48;;;;;;;51.97;15.27;;;;;;;;;;6206754;28;20180;-79
2023/12/01 12:50:50;;;;;;;63.33;21.13;;;;;;;;;;6213132;28;20050;-77
2023/12/01 12:53:53;;;;;;;10.82;5.05;;;;;;;;;;6206281;28;20080;-78
2023/12/01 12:56:55;;;;;;;12.75;5.15;;;;;;;;;;6213728;28;20437;-78
2023/12/01 12:59:57;;;;;;;6.75;3.53;;;;;;;;;;6216465;28;20061;-79
2023/12/01 13:02:58;;;;;;;3.08;2.13;;;;;;;;;;6212866;28;20044;-79
2023/12/01 13:06:01;;;;;;;6.68;3.30;;;;;;;;;;6215099;28;20038;-78
2023/12/01 13:09:04;;;;;;;5.97;3.38;;;;;;;;;;6210506;28;20046;-79
2023/12/01 13:12:07;;;;;;;10.90;4.32;;;;;;;;;;6230428;28;20499;-79
2023/12/01 13:15:09;;;;;;;5.35;2.70;;;;;;;;;;6201972;28;20420;-79
2023/12/01 13:18:11;;;;;;;6.75;3.22;;;;;;;;;;6203452;28;20602;-79
2023/12/01 13:21:16;;;;;;;2.85;1.50;;;;;;;;;;6201670;28;20057;-79
2023/12/01 13:24:18;;;;;;;4.45;2.00;;;;;;;;;;6211874;28;20088;-77
2023/12/01 13:27:20;;;;;;;3.00;1.98;;;;;;;;;;6210848;28;20161;-80
2023/12/01 13:30:22;;;;;;;3.63;2.25;;;;;;;;;;6199069;28;20050;-78
2023/12/01 13:33:25;;;;;;;2.60;1.70;;;;;;;;;;6211817;28;20049;-78
2023/12/01 13:36:27;;;;;;;;;;;;;;;;;;6213701;28;20046;-79
2023/12/01 13:39:28;;;;;;;30.55;14.68;;;;;;;;;;6202995;28;20295;-79
2023/12/01 13:42:31;;;;;;;5.93;2.67;;;;;;;;;;6213559;28;20096;-79
2023/12/01 13:45:36;;;;;;;3.97;2.42;;;;;;;;;;6210046;28;20050;-79
2023/12/01 13:48:38;;;;;;;4.93;2.70;;;;;;;;;;6214741;28;20439;-78
2023/12/01 13:51:40;;;;;;;5.18;2.80;;;;;;;;;;6209251;28;20054;-79
2023/12/01 13:54:42;;;;;;;8.80;3.83;;;;;;;;;;6209958;28;20065;-79
2023/12/01 13:57:44;;;;;;;4.97;2.63;;;;;;;;;;6192723;28;20057;-79
2023/12/01 14:00:48;;;;;;;4.50;2.40;;;;;;;;;;6213188;28;20046;-78
2023/12/01 14:03:50;;;;;;;4.55;2.88;;;;;;;;;;6206541;28;20635;-80
2023/12/01 14:06:52;;;;;;;6.70;2.65;;;;;;;;;;6212277;28;20137;-78
2023/12/01 14:09:54;;;;;;;4.03;2.28;;;;;;;;;;6209365;28;20119;-79
2023/12/01 14:12:56;;;;;;;6.15;2.78;;;;;;;;;;6207414;28;20056;-80
2023/12/01 14:15:58;;;;;;;5.68;2.50;;;;;;;;;;6203758;28;20054;-80
2023/12/01 14:19:04;;;;;;;5.43;2.88;;;;;;;;;;6209307;28;20050;-77
2023/12/01 14:22:06;;;;;;;5.63;2.70;;;;;;;;;;6207151;28;20049;-78
2023/12/01 14:25:08;;;;;;;9.02;3.40;;;;;;;;;;6210252;28;20056;-77
2023/12/01 14:28:10;;;;;;;8.52;3.78;;;;;;;;;;6210558;28;20404;-78
2023/12/01 14:31:11;;;;;;;6.25;3.00;;;;;;;;;;6193039;28;20424;-78
2023/12/01 14:34:13;;;;;;;7.53;3.50;;;;;;;;;;6206511;28;20060;-81
2023/12/01 14:37:15;;;;;;;13.65;5.38;;;;;;;;;;6203249;28;20046;-78
2023/12/01 14:40:17;;;;;;;7.38;3.72;;;;;;;;;;6220773;28;20042;-78
2023/12/01 14:43:19;;;;;;;12.80;5.20;;;;;;;;;;6221996;28;20044;-77
2023/12/01 14:46:21;;;;;;;9.10;4.05;;;;;;;;;;6209366;28;20054;-79
2023/12/01 14:49:23;;;;;;;10.35;4.20;;;;;;;;;;6180837;28;20129;-78
2023/12/01 14:52:26;;;;;;;11.93;4.55;;;;;;;;;;6181729;28;20626;-78
2023/12/01 14:55:28;;;;;;;9.83;4.67;;;;;;;;;;6201953;28;20046;-78
2023/12/01 14:58:29;;;;;;;15.43;6.30;;;;;;;;;;6197289;28;20046;-79
2023/12/01 15:01:31;;;;;;;12.30;4.35;;;;;;;;;;6202701;28;20042;-79
2023/12/01 15:04:33;;;;;;;15.05;5.53;;;;;;;;;;6204825;28;20077;-80
2023/12/01 15:07:35;;;;;;;13.35;5.22;;;;;;;;;;6205480;28;20042;-79
2023/12/01 15:10:37;;;;;;;12.02;4.10;;;;;;;;;;6221443;28;20566;-79
2023/12/01 15:13:39;;;;;;;8.68;4.22;;;;;;;;;;6203154;28;20275;-80
2023/12/01 15:16:40;;;;;;;10.60;4.85;;;;;;;;;;6200524;28;20057;-78
2023/12/01 15:19:42;;;;;;;9.80;3.95;;;;;;;;;;6201396;28;20085;-78
2023/12/01 15:22:44;;;;;;;11.18;5.00;;;;;;;;;;6209797;28;20049;-78
2023/12/01 15:25:45;;;;;;;11.15;4.35;;;;;;;;;;6205011;28;20065;-79
2023/12/01 15:28:47;;;;;;;11.63;5.25;;;;;;;;;;6201768;28;20049;-79
2023/12/01 15:31:50;;;;;;;10.93;4.82;;;;;;;;;;6201181;28;20141;-78
2023/12/01 15:34:51;;;;;;;9.25;4.00;;;;;;;;;;6205632;28;20598;-79
2023/12/01 15:37:53;;;;;;;9.75;4.05;;;;;;;;;;6200535;28;20053;-79
2023/12/01 15:40:55;;;;;;;13.25;6.15;;;;;;;;;;6208070;28;20052;-80
2023/12/01 15:43:57;;;;;;;9.98;4.10;;;;;;;;;;6202212;28;20069;-78
2023/12/01 15:46:59;;;;;;;12.63;4.40;;;;;;;;;;6198807;28;20531;-79
2023/12/01 15:50:02;;;;;;;9.77;4.07;;;;;;;;;;6199458;28;20050;-79
2023/12/01 15:53:05;;;;;;;11.70;4.60;;;;;;;;;;6191729;28;20147;-79
2023/12/01 15:56:09;;;;;;;7.20;3.63;;;;;;;;;;6201832;28;23393;-79
2023/12/01 15:59:11;;;;;;;9.77;4.43;;;;;;;;;;6201885;28;20056;-80
2023/12/01 16:02:12;;;;;;;12.25;3.30;;;;;;;;;;6201122;28;20049;-78
2023/12/01 16:05:14;;;;;;;11.00;3.63;;;;;;;;;;6200527;28;20078;-78
2023/12/01 16:08:17;;;;;;;7.30;3.22;;;;;;;;;;6208819;28;20049;-78
2023/12/01 16:11:19;;;;;;;7.22;3.55;;;;;;;;;;6203628;28;20046;-77
2023/12/01 16:14:22;;;;;;;11.18;4.53;;;;;;;;;;6201497;28;20041;-79
2023/12/01 16:17:26;;;;;;;8.48;4.22;;;;;;;;;;6202464;28;20042;-81
2023/12/01 16:20:28;;;;;;;10.32;5.05;;;;;;;;;;6206732;28;20053;-78
2023/12/01 16:23:31;;;;;;;10.45;4.60;;;;;;;;;;6203841;28;20045;-81
2023/12/01 16:26:33;;;;;;;8.07;3.72;;;;;;;;;;6210419;28;20053;-79
2023/12/01 16:29:35;;;;;;;12.43;5.93;;;;;;;;;;6212428;28;20034;-80
2023/12/01 16:32:37;;;;;;;11.43;5.00;;;;;;;;;;6211517;28;20041;-79
2023/12/01 16:35:39;;;;;;;13.60;4.83;;;;;;;;;;6222395;28;20057;-78
2023/12/01 16:38:41;;;;;;;11.57;4.95;;;;;;;;;;6210917;28;20044;-79
2023/12/01 16:41:43;;;;;;;15.65;5.22;;;;;;;;;;6212875;28;20064;-77
2023/12/01 16:44:49;;;;;;;12.48;4.57;;;;;;;;;;6218214;28;20125;-78
2023/12/01 16:47:50;;;;;;;14.13;5.32;;;;;;;;;;6220542;28;20038;-78
2023/12/01 16:50:53;;;;;;;10.82;5.15;;;;;;;;;;6221095;28;20049;-78
2023/12/01 16:53:55;;;;;;;12.50;5.47;;;;;;;;;;6220321;28;20049;-78
2023/12/01 16:56:57;;;;;;;10.73;4.72;;;;;;;;;;6220630;28;20065;-79
2023/12/01 16:59:59;;;;;;;16.40;5.53;;;;;;;;;;6218991;28;20057;-79
2023/12/01 17:03:01;;;;;;;16.80;7.45;;;;;;;;;;6202642;28;20551;-80
2023/12/01 17:06:03;;;;;;;18.10;7.85;;;;;;;;;;6218480;28;20637;-77
2023/12/01 17:09:05;;;;;;;17.67;6.47;;;;;;;;;;6203797;28;20107;-80
2023/12/01 17:12:07;;;;;;;18.58;8.85;;;;;;;;;;6210927;28;20048;-77
2023/12/01 17:15:09;;;;;;;16.08;6.80;;;;;;;;;;6200250;28;20045;-78
2023/12/01 17:18:11;;;;;;;21.52;8.50;;;;;;;;;;6210008;28;20046;-79
2023/12/01 17:21:14;;;;;;;22.02;8.57;;;;;;;;;;6198100;28;20053;-78
2023/12/01 17:24:16;;;;;;;29.70;10.85;;;;;;;;;;6209446;28;20148;-79
2023/12/01 17:27:18;;;;;;;20.85;9.43;;;;;;;;;;6212743;28;20045;-79
2023/12/01 17:30:20;;;;;;;25.17;10.70;;;;;;;;;;6205317;28;20415;-79
2023/12/01 17:33:21;;;;;;;18.90;7.13;;;;;;;;;;6204970;28;20139;-77
2023/12/01 17:36:26;;;;;;;18.05;7.28;;;;;;;;;;6208869;28;20050;-80
2023/12/01 17:39:29;;;;;;;17.27;8.43;;;;;;;;;;6205209;28;20041;-77
2023/12/01 17:42:30;;;;;;;23.58;9.80;;;;;;;;;;6208307;28;20177;-78
2023/12/01 17:45:35;;;;;;;20.10;8.25;;;;;;;;;;6206282;28;20050;-79
2023/12/01 17:48:37;;;;;;;17.30;7.57;;;;;;;;;;6202732;28;20096;-79
2023/12/01 17:51:39;;;;;;;15.55;6.50;;;;;;;;;;6210870;28;20046;-79
2023/12/01 17:54:41;;;;;;;16.40;6.47;;;;;;;;;;6212009;28;20087;-79
2023/12/01 17:57:43;;;;;;;16.90;7.53;;;;;;;;;;6213982;28;21112;-79
2023/12/01 18:00:45;;;;;;;15.73;6.53;;;;;;;;;;6213698;28;20132;-76
2023/12/01 18:03:46;;;;;;;17.45;7.80;;;;;;;;;;6202071;28;20053;-77
2023/12/01 18:06:50;;;;;;;18.35;8.80;;;;;;;;;;6209035;28;20053;-80
2023/12/01 18:09:52;;;;;;;14.80;6.13;;;;;;;;;;6214739;28;20046;-78
2023/12/01 18:12:54;;;;;;;15.13;6.88;;;;;;;;;;6209050;28;20053;-79
2023/12/01 18:15:56;;;;;;;16.85;7.15;;;;;;;;;;6182178;28;20062;-77
2023/12/01 18:18:57;;;;;;;16.35;7.38;;;;;;;;;;6209901;28;20099;-77